Time;durP1;ratioP1;P1;durP2;ratioP2;P2;SDS_P1;SDS_P2;PMS_P1;PMS_P2;Temp;Humidity;BMP_temperature;BMP_pressure;BME280_temperature;BME280_humidity;BME280_pressure;Samples;Min_cycle;Max_cycle;Signal;HPM_P1;HPM_P2
2021/01/09 00:01:55;;;;;;;40.20;19.17;;;;;;;0.77;100.00;101554.94;4976035;28;20038;-72
2021/01/09 00:04:21;;;;;;;37.38;18.63;;;;;;;0.77;100.00;101560.22;4996132;28;20034;-72
2021/01/09 00:06:47;;;;;;;43.00;19.45;;;;;;;0.76;100.00;101558.47;4986827;28;20537;-72
2021/01/09 00:09:12;;;;;;;41.85;19.40;;;;;;;0.76;100.00;101558.47;4978468;28;20038;-71
2021/01/09 00:11:37;;;;;;;39.50;18.42;;;;;;;0.79;100.00;101563.72;4989581;28;20383;-72
2021/01/09 00:14:03;;;;;;;39.92;18.67;;;;;;;0.78;100.00;101561.97;4997294;28;20101;-72
2021/01/09 00:16:28;;;;;;;36.58;18.08;;;;;;;0.79;100.00;101562.84;4955603;28;20060;-72
2021/01/09 00:18:54;;;;;;;33.67;16.63;;;;;;;0.78;100.00;101561.97;4990854;28;20034;-72
2021/01/09 00:21:19;;;;;;;36.78;17.75;;;;;;;0.83;100.00;101564.56;4976799;28;20100;-72
2021/01/09 00:23:45;;;;;;;36.97;18.48;;;;;;;0.92;100.00;101569.75;4991389;28;20405;-71
2021/01/09 00:26:11;;;;;;;34.65;16.50;;;;;;;0.94;100.00;101561.78;4974650;28;20297;-72
2021/01/09 00:28:36;;;;;;;40.88;18.00;;;;;;;0.87;100.00;101560.97;4991348;28;20038;-72
2021/01/09 00:31:02;;;;;;;40.45;18.42;;;;;;;0.90;100.00;101560.09;4992952;28;20049;-71
2021/01/09 00:33:28;;;;;;;40.95;18.33;;;;;;;0.88;100.00;101556.56;4991984;28;20037;-71
2021/01/09 00:35:56;;;;;;;35.83;16.65;;;;;;;0.91;100.00;101565.38;4989447;28;20022;-72
2021/01/09 00:38:22;;;;;;;38.45;17.17;;;;;;;0.85;100.00;101561.91;4983402;28;20030;-72
2021/01/09 00:40:48;;;;;;;38.55;18.48;;;;;;;0.86;100.00;101559.25;4969320;28;20046;-72
2021/01/09 00:43:14;;;;;;;37.17;17.02;;;;;;;0.91;100.00;101572.41;4976579;28;20038;-72
2021/01/09 00:45:39;;;;;;;41.67;17.73;;;;;;;0.93;100.00;101576.78;4970071;28;20631;-72
2021/01/09 00:48:05;;;;;;;35.28;16.48;;;;;;;0.98;100.00;101576.75;4946632;28;20044;-72
2021/01/09 00:50:30;;;;;;;32.08;16.52;;;;;;;0.99;100.00;101570.56;4948436;28;20061;-73
2021/01/09 00:52:56;;;;;;;37.05;17.92;;;;;;;1.05;100.00;101581.06;4963653;28;20050;-72
2021/01/09 00:55:21;;;;;;;40.20;17.80;;;;;;;0.94;100.00;101570.59;4953875;28;20029;-72
2021/01/09 00:57:46;;;;;;;32.75;15.13;;;;;;;0.92;100.00;101582.09;4975494;28;20039;-72
2021/01/09 01:00:12;;;;;;;38.70;16.63;;;;;;;0.94;100.00;101583.81;4981467;28;20035;-72
2021/01/09 01:02:38;;;;;;;33.97;16.35;;;;;;;0.93;100.00;101581.19;4980424;28;20177;-72
2021/01/09 01:05:04;;;;;;;37.88;16.30;;;;;;;1.01;100.00;101584.63;4983675;28;20038;-72
2021/01/09 01:07:34;;;;;;;33.90;15.85;;;;;;;1.02;100.00;101591.66;4990581;28;20042;-72
2021/01/09 01:09:59;;;;;;;31.08;15.15;;;;;;;1.10;100.00;101584.53;4993888;28;20065;-72
2021/01/09 01:12:25;;;;;;;34.42;15.23;;;;;;;1.03;100.00;101583.72;4988598;28;20030;-72
2021/01/09 01:14:50;;;;;;;33.95;15.93;;;;;;;1.02;100.00;101581.97;4987787;28;20502;-71
2021/01/09 01:17:16;;;;;;;33.45;15.73;;;;;;;1.01;100.00;101579.34;4986059;28;20035;-72
2021/01/09 01:19:41;;;;;;;31.45;15.55;;;;;;;0.98;100.00;101589.97;4977173;28;20051;-72
2021/01/09 01:22:06;;;;;;;34.25;16.58;;;;;;;1.09;100.00;101588.06;4978758;28;20127;-71
2021/01/09 01:24:32;;;;;;;29.50;13.93;;;;;;;1.05;100.00;101602.22;4970989;28;20057;-72
2021/01/09 01:26:57;;;;;;;36.58;15.52;;;;;;;1.16;100.00;101602.97;4969931;28;20043;-71
2021/01/09 01:29:22;;;;;;;35.22;16.15;;;;;;;1.08;100.00;101608.34;4978070;28;20038;-72
2021/01/09 01:31:48;;;;;;;31.63;14.95;;;;;;;1.10;100.00;101603.03;4971634;28;20039;-72
2021/01/09 01:34:13;;;;;;;32.30;14.60;;;;;;;1.21;100.00;101609.94;5006382;28;20026;-72
2021/01/09 01:36:39;;;;;;;32.08;14.48;;;;;;;1.14;100.00;101610.03;4984887;28;20142;-72
2021/01/09 01:39:04;;;;;;;29.55;14.95;;;;;;;1.25;100.00;101615.19;4989527;28;20064;-72
2021/01/09 01:41:30;;;;;;;31.00;14.15;;;;;;;1.23;100.00;101613.44;4976693;28;20552;-72
2021/01/09 01:43:55;;;;;;;26.45;13.15;;;;;;;1.31;100.00;101621.28;4978426;28;20070;-72
2021/01/09 01:46:21;;;;;;;32.92;15.10;;;;;;;1.29;100.00;101622.22;4978995;28;20065;-72
2021/01/09 01:48:46;;;;;;;29.50;13.10;;;;;;;1.29;100.00;101623.09;4985441;28;20037;-72
2021/01/09 01:51:13;;;;;;;33.17;14.35;;;;;;;1.20;100.00;101634.63;4992147;28;20042;-72
2021/01/09 01:53:39;;;;;;;32.20;14.85;;;;;;;1.23;100.00;101634.59;4986324;28;20467;-72
2021/01/09 01:56:05;;;;;;;35.20;14.77;;;;;;;1.14;100.00;101633.81;4991255;28;20042;-72
2021/01/09 01:58:31;;;;;;;35.30;14.75;;;;;;;1.10;100.00;101637.41;4973537;28;20041;-72
2021/01/09 02:00:56;;;;;;;29.33;13.85;;;;;;;1.12;100.00;101638.25;4979847;28;20043;-72
2021/01/09 02:03:21;;;;;;;31.25;13.45;;;;;;;1.11;100.00;101640.00;4972583;28;20040;-72
2021/01/09 02:06:10;;;;;;;28.88;12.77;;;;;;;1.17;100.00;101639.94;4994478;28;20124;-72
2021/01/09 02:08:41;;;;;;;32.50;13.55;;;;;;;1.13;100.00;101645.28;4973581;28;20058;-72
2021/01/09 02:11:14;;;;;;;34.70;14.32;;;;;;;1.15;100.00;101647.03;4996481;28;20038;-72
2021/01/09 02:13:52;;;;;;;26.92;12.57;;;;;;;1.13;100.00;101643.53;4987551;28;20521;-72
2021/01/09 02:16:18;;;;;;;28.48;13.93;;;;;;;1.03;100.00;101647.19;4982406;28;20030;-72
2021/01/09 02:18:45;;;;;;;32.38;13.73;;;;;;;0.99;100.00;101657.81;4970979;28;20041;-73
2021/01/09 02:21:42;;;;;;;31.58;13.75;;;;;;;0.97;100.00;101664.88;4980793;28;20037;-72
2021/01/09 02:24:12;;;;;;;28.10;12.30;;;;;;;0.94;100.00;101651.66;4975813;28;20046;-72
2021/01/09 02:26:38;;;;;;;32.30;13.88;;;;;;;0.95;100.00;101656.06;4969863;28;20045;-72
2021/01/09 02:29:03;;;;;;;29.88;13.43;;;;;;;0.91;100.00;101657.00;4970480;28;20038;-72
2021/01/09 02:31:40;;;;;;;31.25;13.73;;;;;;;0.89;100.00;101657.00;4974161;28;20062;-72
2021/01/09 02:34:09;;;;;;;29.90;13.55;;;;;;;0.89;100.00;101664.06;4984612;28;20021;-72
2021/01/09 02:36:38;;;;;;;30.48;13.43;;;;;;;0.88;100.00;101655.25;4977808;28;20061;-72
2021/01/09 02:39:03;;;;;;;30.70;14.07;;;;;;;0.87;100.00;101660.53;4992466;28;20061;-72
2021/01/09 02:41:33;;;;;;;29.55;12.82;;;;;;;0.87;100.00;101660.53;4957020;28;20711;-72
2021/01/09 02:44:10;;;;;;;31.88;14.48;;;;;;;0.91;100.00;101663.16;4994081;28;20045;-72
2021/01/09 02:46:38;;;;;;;29.08;12.40;;;;;;;0.92;100.00;101664.03;4986859;28;20032;-72
2021/01/09 02:49:04;;;;;;;30.88;12.98;;;;;;;0.88;100.00;101662.28;4987941;28;20080;-72
2021/01/09 02:51:30;;;;;;;33.15;12.13;;;;;;;0.89;100.00;101658.75;4980151;28;20050;-71
2021/01/09 02:53:55;;;;;;;30.02;13.27;;;;;;;0.85;100.00;101663.22;4990077;28;20039;-72
2021/01/09 02:56:21;;;;;;;30.63;13.23;;;;;;;0.88;100.00;101662.28;4990327;28;20044;-72
2021/01/09 02:58:46;;;;;;;33.85;13.27;;;;;;;0.90;100.00;101666.69;4989675;28;20076;-72
2021/01/09 03:01:12;;;;;;;26.60;13.05;;;;;;;0.91;100.00;101667.56;4995827;28;20072;-72
2021/01/09 03:03:37;;;;;;;30.95;14.02;;;;;;;0.87;100.00;101657.88;4994394;28;20042;-72
2021/01/09 03:06:03;;;;;;;29.75;13.15;;;;;;;0.86;100.00;101664.09;4989064;28;20041;-72
2021/01/09 03:08:28;;;;;;;29.17;12.32;;;;;;;0.85;100.00;101657.06;4994294;28;20041;-72
2021/01/09 03:10:53;;;;;;;29.30;12.20;;;;;;;0.88;100.00;101657.00;4975248;28;20033;-72
2021/01/09 03:13:19;;;;;;;30.48;13.30;;;;;;;0.85;100.00;101655.28;4964619;28;20064;-72
2021/01/09 03:15:44;;;;;;;30.60;12.82;;;;;;;0.82;100.00;101660.59;4990085;28;20114;-72
2021/01/09 03:18:10;;;;;;;34.20;13.60;;;;;;;0.82;100.00;101656.19;4995593;28;20030;-72
2021/01/09 03:20:35;;;;;;;26.45;12.48;;;;;;;0.82;100.00;101657.94;4993318;28;20597;-71
2021/01/09 03:23:01;;;;;;;32.55;12.20;;;;;;;0.78;100.00;101657.13;4980402;28;20047;-72
2021/01/09 03:25:27;;;;;;;29.75;11.55;;;;;;;0.77;100.00;101665.03;4991732;28;20026;-73
2021/01/09 03:27:53;;;;;;;30.00;12.13;;;;;;;0.79;100.00;101660.63;4984136;28;20501;-72
2021/01/09 03:30:18;;;;;;;33.35;14.05;;;;;;;0.84;100.00;101660.59;4996444;28;20041;-72
2021/01/09 03:32:44;;;;;;;27.38;13.05;;;;;;;0.81;100.00;101657.06;4985745;28;20397;-72
2021/01/09 03:35:10;;;;;;;28.08;12.60;;;;;;;0.77;100.00;101654.47;4990976;28;20062;-72
2021/01/09 03:37:35;;;;;;;25.33;12.35;;;;;;;0.80;100.00;101660.59;4985765;28;20038;-72
2021/01/09 03:40:01;;;;;;;26.48;12.55;;;;;;;0.76;100.00;101669.44;5000854;28;20037;-72
2021/01/09 03:42:26;;;;;;;29.55;13.65;;;;;;;0.77;100.00;101665.03;4990335;28;20034;-72
2021/01/09 03:44:52;;;;;;;30.13;12.63;;;;;;;0.80;100.00;101671.16;4999410;28;20671;-72
2021/01/09 03:47:20;;;;;;;30.92;13.60;;;;;;;0.80;100.00;101665.88;4986897;28;20526;-72
2021/01/09 03:49:45;;;;;;;31.48;13.95;;;;;;;0.78;100.00;101665.03;4989462;28;20584;-71
2021/01/09 03:52:11;;;;;;;30.77;13.50;;;;;;;0.80;100.00;101655.31;4993184;28;20164;-72
2021/01/09 03:54:36;;;;;;;29.75;13.13;;;;;;;0.80;100.00;101657.09;4992790;28;20019;-71
2021/01/09 03:57:01;;;;;;;28.48;13.07;;;;;;;0.77;100.00;101657.13;4990706;28;20042;-71
2021/01/09 03:59:27;;;;;;;33.15;13.40;;;;;;;0.74;100.00;101660.66;4967950;28;20034;-71
2021/01/09 04:01:53;;;;;;;31.90;14.02;;;;;;;0.76;100.00;101661.53;4984887;28;20494;-71
2021/01/09 04:04:18;;;;;;;33.22;15.02;;;;;;;0.77;100.00;101663.28;4988542;28;20049;-72
2021/01/09 04:06:44;;;;;;;28.77;13.07;;;;;;;0.69;100.00;101662.47;4995402;28;20034;-71
2021/01/09 04:09:09;;;;;;;29.02;13.75;;;;;;;0.67;100.00;101666.03;4981420;28;20046;-72
2021/01/09 04:11:34;;;;;;;25.20;12.93;;;;;;;0.64;100.00;101664.28;4972410;28;20035;-71
2021/01/09 04:14:01;;;;;;;31.95;13.02;;;;;;;0.63;100.00;101673.09;4990606;28;20030;-71
2021/01/09 04:16:26;;;;;;;30.00;13.00;;;;;;;0.60;100.00;101666.97;4965969;28;20117;-71
2021/01/09 04:18:52;;;;;;;31.38;13.43;;;;;;;0.57;100.00;101678.41;4984952;28;20181;-71
2021/01/09 04:21:17;;;;;;;36.67;12.85;;;;;;;0.64;100.00;101669.56;4992606;28;20034;-71
2021/01/09 04:23:43;;;;;;;28.88;12.35;;;;;;;0.53;100.00;101666.13;4997326;28;20494;-72
2021/01/09 04:26:13;;;;;;;28.45;12.60;;;;;;;0.50;100.00;101673.19;4983701;28;20034;-71
2021/01/09 04:28:39;;;;;;;30.15;13.48;;;;;;;0.49;100.00;101675.00;4991995;28;20026;-71
2021/01/09 04:31:04;;;;;;;30.13;12.95;;;;;;;0.48;100.00;101667.06;4992145;28;20038;-72
2021/01/09 04:33:29;;;;;;;28.25;12.75;;;;;;;0.44;100.00;101666.19;4983942;28;20118;-72
2021/01/09 04:35:55;;;;;;;28.48;12.68;;;;;;;0.42;100.00;101665.34;4977142;28;20034;-71
2021/01/09 04:38:20;;;;;;;27.25;13.30;;;;;;;0.40;100.00;101678.56;4974161;28;20121;-71
2021/01/09 04:40:46;;;;;;;33.55;14.15;;;;;;;0.42;100.00;101673.28;4982423;28;20030;-72
2021/01/09 04:43:11;;;;;;;26.52;12.93;;;;;;;0.40;100.00;101677.69;4973612;28;20502;-71
2021/01/09 04:45:37;;;;;;;32.05;13.75;;;;;;;0.40;100.00;101680.31;4993282;28;20138;-71
2021/01/09 04:48:04;;;;;;;32.65;14.93;;;;;;;0.40;100.00;101680.31;4972994;28;20037;-71
2021/01/09 04:50:31;;;;;;;27.75;13.73;;;;;;;0.38;100.00;101682.97;4986978;28;20124;-71
2021/01/09 04:52:57;;;;;;;33.40;13.52;;;;;;;0.42;100.00;101683.84;4989834;28;20478;-72
2021/01/09 04:55:23;;;;;;;35.75;15.20;;;;;;;0.45;100.00;101673.22;4991987;28;20121;-72
2021/01/09 04:57:50;;;;;;;32.30;12.80;;;;;;;0.44;100.00;101682.03;4984974;28;20449;-71
2021/01/09 05:00:16;;;;;;;32.38;13.05;;;;;;;0.38;100.00;101682.09;4983986;28;20117;-71
2021/01/09 05:02:42;;;;;;;29.33;12.90;;;;;;;0.37;100.00;101690.94;4986753;28;20041;-71
2021/01/09 05:05:07;;;;;;;32.72;13.98;;;;;;;0.34;100.00;101683.88;4990125;28;20042;-70
2021/01/09 05:07:33;;;;;;;34.38;14.60;;;;;;;0.36;100.00;101681.25;4991137;28;20037;-72
2021/01/09 05:10:01;;;;;;;30.63;14.57;;;;;;;0.41;100.00;101684.72;4998745;28;20461;-71
2021/01/09 05:12:31;;;;;;;34.83;15.30;;;;;;;0.46;100.00;101685.56;4986232;28;20037;-71
2021/01/09 05:14:57;;;;;;;37.78;15.07;;;;;;;0.45;100.00;101683.81;4991580;28;20026;-71
2021/01/09 05:17:24;;;;;;;34.17;14.35;;;;;;;0.52;100.00;101685.50;4974740;28;20088;-71
2021/01/09 05:19:49;;;;;;;33.92;14.27;;;;;;;0.54;100.00;101688.16;4975746;28;20157;-72
2021/01/09 05:22:15;;;;;;;34.03;14.80;;;;;;;0.48;100.00;101686.44;4990428;28;20549;-71
2021/01/09 05:24:45;;;;;;;36.42;13.77;;;;;;;0.44;100.00;101694.38;4992334;28;20047;-71
2021/01/09 05:27:12;;;;;;;30.63;14.00;;;;;;;0.41;100.00;101692.66;4981825;28;20035;-71
2021/01/09 05:29:37;;;;;;;39.33;15.45;;;;;;;0.42;100.00;101694.41;4990227;28;20069;-71
2021/01/09 05:32:07;;;;;;;38.00;15.13;;;;;;;0.38;100.00;101696.16;4983811;28;20140;-71
2021/01/09 05:34:44;;;;;;;40.85;14.98;;;;;;;0.37;100.00;101701.50;4992955;28;20061;-71
2021/01/09 05:37:17;;;;;;;35.35;15.05;;;;;;;0.37;100.00;101715.53;4986178;28;20070;-72
2021/01/09 05:39:54;;;;;;;33.90;15.00;;;;;;;0.36;100.00;101710.28;4992076;28;20034;-72
2021/01/09 05:42:21;;;;;;;35.67;15.02;;;;;;;0.35;100.00;101719.09;4989153;28;20047;-71
2021/01/09 05:44:47;;;;;;;36.53;14.70;;;;;;;0.31;100.00;101710.31;4992105;28;20058;-71
2021/01/09 05:47:13;;;;;;;32.65;14.70;;;;;;;0.35;100.00;101713.81;4989206;28;20084;-71
2021/01/09 05:49:43;;;;;;;36.08;15.15;;;;;;;0.35;100.00;101719.09;4986108;28;20494;-71
2021/01/09 05:52:10;;;;;;;37.78;15.45;;;;;;;0.31;100.00;101722.63;4970314;28;20034;-71
2021/01/09 05:54:36;;;;;;;32.33;14.90;;;;;;;0.34;100.00;101717.34;4968324;28;20610;-71
2021/01/09 05:57:04;;;;;;;33.92;15.75;;;;;;;0.31;100.00;101733.19;4976987;28;20102;-71
2021/01/09 05:59:32;;;;;;;34.50;15.52;;;;;;;0.29;100.00;101727.06;4989746;28;20046;-71
2021/01/09 06:01:59;;;;;;;34.47;14.30;;;;;;;0.29;100.00;101727.06;4988023;28;20042;-70
2021/01/09 06:04:31;;;;;;;31.42;14.02;;;;;;;0.25;100.00;101728.81;4990068;28;20134;-71
2021/01/09 06:07:06;;;;;;;35.97;15.68;;;;;;;0.23;100.00;101735.91;4985198;28;20050;-71
2021/01/09 06:09:35;;;;;;;31.92;14.88;;;;;;;0.27;100.00;101739.38;4990987;28;20080;-71
2021/01/09 06:12:06;;;;;;;29.65;13.90;;;;;;;0.22;100.00;101743.81;4979880;28;20049;-70
2021/01/09 06:14:35;;;;;;;29.15;13.68;;;;;;;0.19;100.00;101743.81;4988418;28;20037;-71
2021/01/09 06:17:02;;;;;;;30.42;14.38;;;;;;;0.16;100.00;101743.84;4987364;28;20039;-71
2021/01/09 06:19:28;;;;;;;31.33;13.88;;;;;;;0.14;100.00;101746.50;4982672;28;20035;-71
2021/01/09 06:21:55;;;;;;;31.50;13.45;;;;;;;0.13;100.00;101749.13;4988699;28;20038;-71
2021/01/09 06:24:22;;;;;;;30.23;14.43;;;;;;;0.10;100.00;101746.53;4989201;28;20034;-71
2021/01/09 06:26:49;;;;;;;28.13;12.82;;;;;;;0.08;100.00;101749.16;4965415;28;20050;-71
2021/01/09 06:29:26;;;;;;;32.35;14.18;;;;;;;0.06;100.00;101750.97;4988290;28;20046;-71
2021/01/09 06:31:57;;;;;;;33.75;14.30;;;;;;;0.05;100.00;101748.31;4968541;28;20506;-71
2021/01/09 06:34:25;;;;;;;35.13;14.95;;;;;;;0.03;100.00;101753.59;4987375;28;20486;-71
2021/01/09 06:37:01;;;;;;;33.25;14.25;;;;;;;0.03;100.00;101761.50;4985366;28;20030;-71
2021/01/09 06:39:34;;;;;;;28.45;13.18;;;;;;;0.02;100.00;101764.16;4989288;28;20444;-71
2021/01/09 06:42:03;;;;;;;30.27;13.77;;;;;;;0.03;100.00;101766.78;4986123;28;20137;-71
2021/01/09 06:44:29;;;;;;;30.70;14.07;;;;;;;0.07;100.00;101767.63;4992249;28;20117;-70
2021/01/09 06:46:55;;;;;;;29.23;13.95;;;;;;;0.02;100.00;101766.78;4969610;28;20153;-71
2021/01/09 06:49:22;;;;;;;35.28;14.65;;;;;;;0.04;100.00;101772.94;4981306;28;20113;-71
2021/01/09 06:51:54;;;;;;;28.60;12.82;;;;;;;0.09;100.00;101776.44;4962320;28;20034;-71
2021/01/09 06:54:24;;;;;;;32.73;14.40;;;;;;;0.12;100.00;101779.09;4977013;28;20121;-71
2021/01/09 06:57:03;;;;;;;33.58;14.27;;;;;;;0.03;100.00;101779.09;4984607;28;20042;-70
2021/01/09 06:59:32;;;;;;;35.83;14.23;;;;;;;0.02;100.00;101782.63;4991889;28;20037;-71
2021/01/09 07:02:36;;;;;;;36.72;15.45;;;;;;;0.03;100.00;101787.03;4967190;28;20045;-71
2021/01/09 07:05:18;;;;;;;;;;;;;;;0.14;100.00;101785.22;4978815;28;20050;-71
2021/01/09 07:07:56;;;;;;;31.87;14.77;;;;;;;0.08;100.00;101788.75;4970680;28;19940;-71
2021/01/09 07:10:26;;;;;;;40.92;16.90;;;;;;;0.13;100.00;101778.16;4980135;28;20048;-71
2021/01/09 07:13:06;;;;;;;40.50;17.60;;;;;;;0.21;100.00;101784.31;4978068;28;20045;-71
2021/01/09 07:15:35;;;;;;;45.00;17.20;;;;;;;0.14;100.00;101796.66;4978554;28;20043;-71
2021/01/09 07:18:03;;;;;;;58.50;19.55;;;;;;;0.18;100.00;101792.25;4979377;28;20560;-71
2021/01/09 07:20:49;;;;;;;70.22;26.55;;;;;;;0.22;100.00;101792.22;4991968;28;20041;-71
2021/01/09 07:23:19;;;;;;;61.80;23.38;;;;;;;0.21;100.00;101794.88;4986176;28;20475;-71
2021/01/09 07:25:46;;;;;;;68.53;21.92;;;;;;;0.27;100.00;101794.84;4985059;28;20049;-71
2021/01/09 07:28:21;;;;;;;73.60;21.35;;;;;;;0.33;100.00;101795.69;4997198;28;20116;-71
2021/01/09 07:30:47;;;;;;;74.30;21.83;;;;;;;0.26;100.00;101803.63;4997933;28;20034;-71
2021/01/09 07:33:14;;;;;;;83.78;26.67;;;;;;;0.27;100.00;101808.03;4992392;28;20042;-71
2021/01/09 07:35:44;;;;;;;135.93;23.65;;;;;;;0.39;100.00;101811.50;4981874;28;20125;-71
2021/01/09 07:38:13;;;;;;;231.20;52.95;;;;;;;0.32;100.00;101816.81;4984284;28;20045;-71
2021/01/09 07:40:45;;;;;;;153.90;43.33;;;;;;;0.34;100.00;101817.69;4975840;28;20042;-71
2021/01/09 07:43:33;;;;;;;150.32;40.65;;;;;;;0.27;100.00;101814.19;4994590;28;20077;-71
2021/01/09 07:45:59;;;;;;;70.22;21.95;;;;;;;0.34;100.00;101813.28;4964640;28;20045;-71
2021/01/09 07:48:31;;;;;;;56.17;19.25;;;;;;;0.38;100.00;101819.41;4988053;28;20040;-71
2021/01/09 07:50:56;;;;;;;97.30;28.25;;;;;;;0.32;100.00;101808.88;4994404;28;20045;-71
2021/01/09 07:53:26;;;;;;;109.13;26.73;;;;;;;0.31;100.00;101813.28;4990323;28;20027;-70
2021/01/09 07:55:53;;;;;;;82.75;27.02;;;;;;;0.31;100.00;101817.69;4993577;28;20765;-71
2021/01/09 07:58:38;;;;;;;95.00;28.88;;;;;;;0.38;100.00;101816.78;4997895;28;20046;-71
2021/01/09 08:01:03;;;;;;;194.32;52.10;;;;;;;0.44;100.00;101811.47;4991675;28;20106;-71
2021/01/09 08:03:30;;;;;;;171.38;51.15;;;;;;;0.41;100.00;101816.78;4996952;28;20973;-71
2021/01/09 08:05:58;;;;;;;158.55;48.97;;;;;;;0.40;100.00;101817.66;4993334;28;20030;-71
2021/01/09 08:08:25;;;;;;;119.68;36.80;;;;;;;0.44;100.00;101819.38;4975082;28;20383;-71
2021/01/09 08:10:50;;;;;;;51.28;18.15;;;;;;;0.44;100.00;101818.50;4996887;28;20146;-71
2021/01/09 08:13:17;;;;;;;44.03;17.65;;;;;;;0.42;100.00;101822.94;4992845;28;20054;-71
2021/01/09 08:15:43;;;;;;;63.40;24.25;;;;;;;0.52;100.00;101828.16;4993412;28;20169;-71
2021/01/09 08:18:10;;;;;;;72.05;25.75;;;;;;;0.51;100.00;101831.69;4973278;28;20066;-71
2021/01/09 08:20:35;;;;;;;59.83;23.05;;;;;;;0.54;100.00;101826.41;4987328;28;20034;-71
2021/01/09 08:23:05;;;;;;;139.85;50.25;;;;;;;0.61;100.00;101828.13;4987195;28;20109;-71
2021/01/09 08:25:33;;;;;;;99.47;31.52;;;;;;;0.71;100.00;101835.09;4973678;28;20046;-71
2021/01/09 08:28:00;;;;;;;60.45;22.52;;;;;;;0.80;100.00;101840.31;4974212;28;20117;-71
2021/01/09 08:30:33;;;;;;;47.13;18.55;;;;;;;0.77;100.00;101845.63;4990583;28;20130;-71
2021/01/09 08:33:13;;;;;;;49.33;19.83;;;;;;;0.78;100.00;101838.56;4971941;28;20034;-71
2021/01/09 08:35:47;;;;;;;39.75;18.05;;;;;;;0.91;100.00;101842.00;4985744;28;20065;-71
2021/01/09 08:38:13;;;;;;;38.45;16.05;;;;;;;0.85;100.00;101852.63;4978661;28;20030;-71
2021/01/09 08:40:39;;;;;;;30.80;14.15;;;;;;;0.75;100.00;101865.00;4996562;28;20033;-71
2021/01/09 08:43:10;;;;;;;31.10;14.35;;;;;;;0.84;100.00;101864.09;4994114;28;20105;-70
2021/01/09 08:45:42;;;;;;;45.97;24.10;;;;;;;0.85;100.00;101879.06;4993222;28;20129;-71
2021/01/09 08:48:17;;;;;;;48.08;21.10;;;;;;;0.78;100.00;101872.94;4993144;28;20554;-71
2021/01/09 08:50:49;;;;;;;70.88;35.35;;;;;;;0.83;100.00;101876.41;4983401;28;20031;-71
2021/01/09 08:53:16;;;;;;;54.83;23.67;;;;;;;0.87;100.00;101871.97;4969191;28;20532;-71
2021/01/09 08:55:42;;;;;;;43.17;21.80;;;;;;;0.74;100.00;101877.34;4988219;28;20125;-71
2021/01/09 08:58:08;;;;;;;34.65;17.27;;;;;;;0.89;100.00;101878.16;4993981;28;20494;-71
2021/01/09 09:00:34;;;;;;;33.80;16.83;;;;;;;0.79;100.00;101885.25;4996955;28;20101;-71
2021/01/09 09:03:01;;;;;;;38.10;18.15;;;;;;;0.84;100.00;101890.50;4973763;28;20510;-71
2021/01/09 09:05:30;;;;;;;41.83;18.25;;;;;;;0.79;100.00;101886.16;5000219;28;20675;-71
2021/01/09 09:07:57;;;;;;;56.08;20.40;;;;;;;0.78;100.00;101894.97;4994181;28;20030;-71
2021/01/09 09:10:30;;;;;;;42.50;17.67;;;;;;;0.72;100.00;101895.00;4988883;28;20039;-71
2021/01/09 09:13:17;;;;;;;57.38;26.73;;;;;;;0.77;100.00;101895.84;4977789;28;20034;-71
2021/01/09 09:15:42;;;;;;;40.60;18.98;;;;;;;0.82;100.00;101899.31;4985625;28;20192;-71
2021/01/09 09:18:11;;;;;;;32.13;15.30;;;;;;;0.84;100.00;101903.72;4980271;28;20854;-71
2021/01/09 09:20:38;;;;;;;35.55;14.35;;;;;;;0.89;100.00;101900.16;4967284;28;20517;-71
2021/01/09 09:23:19;;;;;;;36.60;17.77;;;;;;;0.82;100.00;101901.97;5000304;28;20434;-71
2021/01/09 09:25:45;;;;;;;40.30;20.95;;;;;;;0.82;100.00;101899.31;4972542;28;20058;-71
2021/01/09 09:28:11;;;;;;;51.65;23.90;;;;;;;0.86;100.00;101913.41;4995102;28;20516;-71
2021/01/09 09:30:37;;;;;;;64.60;28.75;;;;;;;0.77;100.00;101909.06;4978208;28;20475;-71
2021/01/09 09:33:13;;;;;;;65.30;30.20;;;;;;;0.77;100.00;101910.81;4984937;28;20360;-71
2021/01/09 09:35:40;;;;;;;66.82;31.40;;;;;;;0.86;100.00;101912.53;4958507;28;20038;-71
2021/01/09 09:38:08;;;;;;;45.88;24.30;;;;;;;0.92;100.00;101912.50;4997615;28;20070;-71
2021/01/09 09:40:35;;;;;;;52.08;22.45;;;;;;;0.91;100.00;101916.91;4990636;28;20034;-71
2021/01/09 09:43:17;;;;;;;62.85;28.75;;;;;;;0.94;100.00;101918.63;4973815;28;20042;-71
2021/01/09 09:45:59;;;;;;;45.92;20.70;;;;;;;0.89;100.00;101913.38;4975795;28;20080;-71
2021/01/09 09:48:30;;;;;;;48.75;22.35;;;;;;;0.98;100.00;101920.41;4975228;28;20092;-71
2021/01/09 09:51:07;;;;;;;83.45;41.20;;;;;;;0.92;100.00;101917.78;4995653;28;20033;-71
2021/01/09 09:53:38;;;;;;;328.00;107.57;;;;;;;0.96;100.00;101912.47;4987410;28;20454;-71
2021/01/09 09:56:10;;;;;;;103.80;42.92;;;;;;;0.93;100.00;101923.03;4993945;28;20401;-71
2021/01/09 09:58:37;;;;;;;79.50;29.27;;;;;;;0.98;100.00;101918.63;4968042;28;20030;-71
2021/01/09 10:01:02;;;;;;;74.35;36.08;;;;;;;0.95;100.00;101928.34;4986382;28;20282;-71
2021/01/09 10:03:35;;;;;;;109.93;46.42;;;;;;;1.06;100.00;101929.16;4974115;28;20061;-71
2021/01/09 10:06:01;;;;;;;69.45;31.40;;;;;;;1.07;100.00;101926.50;4970192;28;20049;-71
2021/01/09 10:08:27;;;;;;;49.53;21.98;;;;;;;1.16;100.00;101933.50;4996350;28;20038;-71
2021/01/09 10:10:52;;;;;;;60.58;30.13;;;;;;;1.07;100.00;101930.91;4979486;28;20446;-71
2021/01/09 10:13:25;;;;;;;40.80;19.42;;;;;;;1.17;100.00;101935.28;4992293;28;20112;-71
2021/01/09 10:15:51;;;;;;;40.50;17.60;;;;;;;1.16;100.00;101928.22;4968139;28;20057;-71
2021/01/09 10:18:16;;;;;;;36.40;18.77;;;;;;;1.36;100.00;101925.44;4974845;28;20264;-71
2021/01/09 10:20:41;;;;;;;37.85;19.45;;;;;;;1.31;100.00;101921.94;4990219;28;20125;-71
2021/01/09 10:23:07;;;;;;;87.43;41.65;;;;;;;1.34;100.00;101930.72;4991597;28;20034;-71
2021/01/09 10:25:32;;;;;;;58.72;27.35;;;;;;;1.29;100.00;101921.97;4989759;28;20449;-71
2021/01/09 10:27:57;;;;;;;80.45;43.38;;;;;;;1.25;100.00;101927.25;4988261;28;20034;-71
2021/01/09 10:30:23;;;;;;;49.75;22.77;;;;;;;1.34;100.00;101928.09;4979236;28;20128;-71
2021/01/09 10:32:49;;;;;;;44.72;20.17;;;;;;;1.28;100.00;101928.13;4996438;28;20018;-71
2021/01/09 10:35:14;;;;;;;51.88;25.10;;;;;;;1.26;100.00;101923.72;4999343;28;20037;-71
2021/01/09 10:37:40;;;;;;;68.93;34.28;;;;;;;1.31;100.00;101922.81;4990901;28;20038;-71
2021/01/09 10:40:07;;;;;;;99.20;52.97;;;;;;;1.31;100.00;101912.22;4952032;28;20120;-72
2021/01/09 10:42:32;;;;;;;43.92;24.52;;;;;;;1.33;100.00;101926.31;4977622;28;20486;-71
2021/01/09 10:44:58;;;;;;;46.55;27.70;;;;;;;1.44;100.00;101923.59;4998700;28;20084;-71
2021/01/09 10:47:23;;;;;;;40.97;21.20;;;;;;;1.42;100.00;101910.38;4994393;28;20042;-71
2021/01/09 10:49:48;;;;;;;72.75;38.08;;;;;;;1.43;100.00;101920.06;4997041;28;20117;-72
2021/01/09 10:52:14;;;;;;;63.20;32.40;;;;;;;1.45;100.00;101918.31;4979299;28;20034;-72
2021/01/09 10:54:39;;;;;;;56.60;26.60;;;;;;;1.59;100.00;101916.44;4958611;28;20410;-72
2021/01/09 10:57:05;;;;;;;46.17;24.42;;;;;;;1.72;100.00;101913.69;4974843;28;20042;-72
2021/01/09 10:59:30;;;;;;;45.33;21.70;;;;;;;1.66;100.00;101916.38;5001448;28;20120;-72
2021/01/09 11:01:56;;;;;;;55.92;29.50;;;;;;;1.68;100.00;101911.94;4994218;28;20041;-71
2021/01/09 11:04:22;;;;;;;54.67;28.10;;;;;;;1.72;100.00;101914.56;4978095;28;20044;-72
2021/01/09 11:06:47;;;;;;;36.95;18.38;;;;;;;1.83;100.00;101909.16;4978051;28;20030;-72
2021/01/09 11:09:12;;;;;;;48.75;27.35;;;;;;;1.82;100.00;101904.75;4999882;28;20044;-72
2021/01/09 11:11:38;;;;;;;41.10;18.35;;;;;;;1.94;100.00;101896.69;4971585;28;20039;-72
2021/01/09 11:14:03;;;;;;;38.33;18.85;;;;;;;2.02;100.00;101902.78;5002545;28;20034;-72